createdAt,value
2018-05-12T00:01:14.092Z,98512.41
2018-05-12T00:03:41.624Z,98509.07
2018-05-12T00:06:09.099Z,98511.39
2018-05-12T00:08:36.619Z,98511.41
2018-05-12T00:11:04.088Z,98515.39
2018-05-12T00:13:31.561Z,98509.87
2018-05-12T00:15:59.087Z,98510.35
2018-05-12T00:18:29.930Z,98510.44
2018-05-12T00:20:57.515Z,98500.26
2018-05-12T00:23:24.982Z,98505.95
2018-05-12T00:25:52.482Z,98506.22
2018-05-12T00:28:19.966Z,98511.92
2018-05-12T00:30:47.546Z,98508.83
2018-05-12T00:33:15.114Z,98503.81
2018-05-12T00:35:42.594Z,98500.03
2018-05-12T00:38:10.054Z,98498.82
2018-05-12T00:40:37.578Z,98497.56
2018-05-12T00:43:05.192Z,98494.39
2018-05-12T00:45:32.666Z,98500.91
2018-05-12T00:48:00.170Z,98494.20
2018-05-12T00:50:27.726Z,98496.43
2018-05-12T00:52:55.199Z,98495.77
2018-05-12T00:55:22.687Z,98495.19
2018-05-12T00:57:50.179Z,98493.45
2018-05-12T01:00:17.755Z,98494.44
2018-05-12T01:02:45.291Z,98504.25
2018-05-12T01:05:12.787Z,98506.36
2018-05-12T01:07:40.257Z,98514.58
2018-05-12T01:10:07.750Z,98506.94
2018-05-12T01:12:35.250Z,98507.78
2018-05-12T01:15:02.719Z,98511.31
2018-05-12T01:17:30.266Z,98506.66
2018-05-12T01:19:57.738Z,98502.38
2018-05-12T01:22:25.257Z,98495.30
2018-05-12T01:24:52.758Z,98508.38
2018-05-12T01:27:20.303Z,98507.03
2018-05-12T01:29:47.786Z,98505.98
2018-05-12T01:32:15.419Z,98500.69
2018-05-12T01:34:42.889Z,98500.60
2018-05-12T01:37:10.379Z,98505.41
2018-05-12T01:39:37.849Z,98502.95
2018-05-12T01:42:05.415Z,98507.81
2018-05-12T01:44:32.890Z,98504.00
2018-05-12T01:47:00.470Z,98500.61
2018-05-12T01:49:28.035Z,98494.90
2018-05-12T01:51:55.588Z,98498.84
2018-05-12T01:54:23.158Z,98493.55
2018-05-12T01:56:50.642Z,98498.91
2018-05-12T01:59:18.123Z,98496.57
2018-05-12T02:01:45.736Z,98507.67
2018-05-12T02:04:13.330Z,98503.91
2018-05-12T02:06:41.913Z,98503.27
2018-05-12T02:09:09.530Z,98501.47
2018-05-12T02:11:37.019Z,98502.66
2018-05-12T02:14:04.487Z,98507.23
2018-05-12T02:16:31.979Z,98504.63
2018-05-12T02:18:59.469Z,98507.23
2018-05-12T02:21:27.031Z,98508.00
2018-05-12T02:23:54.586Z,98515.00
2018-05-12T02:26:22.077Z,98511.81
2018-05-12T02:28:49.598Z,98513.31
2018-05-12T02:31:17.162Z,98521.71
2018-05-12T02:33:44.651Z,98530.39
2018-05-12T02:36:12.111Z,98527.41
2018-05-12T02:38:39.640Z,98534.50
2018-05-12T02:41:07.106Z,98532.39
2018-05-12T02:43:34.656Z,98529.06
2018-05-12T02:46:02.217Z,98524.73
2018-05-12T02:48:29.724Z,98529.45
2018-05-12T02:50:57.242Z,98528.67
2018-05-12T02:53:24.791Z,98522.11
2018-05-12T02:55:52.250Z,98517.30
2018-05-12T02:58:19.748Z,98513.56
2018-05-12T03:00:47.223Z,98514.78
2018-05-12T03:03:14.754Z,98514.20
2018-05-12T03:05:42.214Z,98512.77
2018-05-12T03:08:09.746Z,98511.56
2018-05-12T03:10:37.222Z,98509.52
2018-05-12T03:13:04.764Z,98508.75
2018-05-12T03:15:32.317Z,98509.92
2018-05-12T03:17:59.798Z,98502.08
2018-05-12T03:20:27.254Z,98501.73
2018-05-12T03:22:54.794Z,98500.75
2018-05-12T03:25:22.399Z,98500.96
2018-05-12T03:27:49.926Z,98503.64
2018-05-12T03:30:17.483Z,98498.91
2018-05-12T03:32:44.956Z,98503.48
2018-05-12T03:35:12.448Z,98498.30
2018-05-12T03:37:39.930Z,98505.43
2018-05-12T03:40:07.615Z,98502.89
2018-05-12T03:42:35.087Z,98507.91
2018-05-12T03:45:02.634Z,98510.31
2018-05-12T03:47:30.206Z,98509.99
2018-05-12T03:49:57.694Z,98510.97
2018-05-12T03:52:25.214Z,98511.06
2018-05-12T03:54:52.698Z,98516.06
2018-05-12T03:57:20.178Z,98513.52
2018-05-12T03:59:47.682Z,98517.28
2018-05-12T04:02:15.250Z,98519.45
2018-05-12T04:08:00.360Z,98518.45
2018-05-12T04:10:39.883Z,98523.17
2018-05-12T04:13:07.357Z,98521.70
2018-05-12T04:15:34.849Z,98524.30
2018-05-12T04:18:02.355Z,98522.33
2018-05-12T04:20:29.846Z,98520.36
2018-05-12T04:22:57.323Z,98523.34
2018-05-12T04:25:24.818Z,98521.42
2018-05-12T04:27:52.291Z,98521.84
2018-05-12T04:30:19.847Z,98530.97
2018-05-12T04:32:47.406Z,98531.95
2018-05-12T04:35:14.978Z,98537.74
2018-05-12T04:37:42.457Z,98536.75
2018-05-12T04:40:09.947Z,98527.78
2018-05-12T04:42:37.446Z,98532.02
2018-05-12T04:45:04.999Z,98530.55
2018-05-12T04:47:32.498Z,98534.00
2018-05-12T04:49:59.996Z,98540.36
2018-05-12T04:52:27.466Z,98536.31
2018-05-12T04:54:54.948Z,98537.27
2018-05-12T04:57:22.490Z,98540.05
2018-05-12T04:59:50.237Z,98537.56
2018-05-12T05:02:17.698Z,98547.24
2018-05-12T05:04:45.192Z,98545.63
2018-05-12T05:07:12.662Z,98543.63
2018-05-12T05:09:40.150Z,98540.05
2018-05-12T05:12:07.715Z,98548.56
2018-05-12T05:14:35.203Z,98547.55
2018-05-12T05:17:02.763Z,98546.88
2018-05-12T05:19:30.332Z,98548.28
2018-05-12T05:21:57.798Z,98552.75
2018-05-12T05:24:25.267Z,98549.92
2018-05-12T05:26:52.799Z,98549.31
2018-05-12T05:29:20.262Z,98551.60
2018-05-12T05:31:47.749Z,98548.22
2018-05-12T05:34:15.227Z,98548.42
2018-05-12T05:36:42.724Z,98546.70
2018-05-12T05:39:10.215Z,98549.95
2018-05-12T05:41:37.808Z,98545.16
2018-05-12T05:44:05.355Z,98547.21
2018-05-12T05:46:32.870Z,98548.41
2018-05-12T05:49:00.434Z,98543.75
2018-05-12T05:51:27.931Z,98542.42
2018-05-12T05:53:55.428Z,98539.17
2018-05-12T05:56:23.007Z,98536.76
2018-05-12T05:58:50.475Z,98538.95
2018-05-12T06:01:17.979Z,98541.77
2018-05-12T06:03:45.483Z,98537.78
2018-05-12T06:06:12.979Z,98534.61
2018-05-12T06:08:40.452Z,98542.82
2018-05-12T06:11:07.962Z,98542.72
2018-05-12T06:13:35.431Z,98543.72
2018-05-12T06:16:02.980Z,98545.45
2018-05-12T06:18:30.534Z,98542.58
2018-05-12T06:20:58.094Z,98540.42
2018-05-12T06:23:25.618Z,98543.60
2018-05-12T06:25:53.100Z,98534.83
2018-05-12T06:28:20.585Z,98534.31
2018-05-12T06:30:48.057Z,98532.34
2018-05-12T06:33:15.555Z,98522.86
2018-05-12T06:35:43.098Z,98519.81
2018-05-12T06:38:10.703Z,98519.75
2018-05-12T06:40:38.338Z,98516.13
2018-05-12T06:43:05.868Z,98507.39
2018-05-12T06:45:33.349Z,98508.45
2018-05-12T06:48:00.844Z,98512.52
2018-05-12T06:50:28.318Z,98515.77
2018-05-12T06:52:55.909Z,98515.30
2018-05-12T06:55:23.318Z,98515.47
2018-05-12T06:57:50.866Z,98515.66
2018-05-12T07:00:18.378Z,98512.28
2018-05-12T07:02:45.994Z,98508.98
2018-05-12T07:05:13.563Z,98504.21
2018-05-12T07:07:41.123Z,98504.45
2018-05-12T07:10:08.629Z,98505.93
2018-05-12T07:12:36.125Z,98502.52
2018-05-12T07:15:03.617Z,98499.57
2018-05-12T07:17:31.106Z,98496.92
2018-05-12T07:19:58.570Z,98497.17
2018-05-12T07:22:26.132Z,98497.18
2018-05-12T07:24:53.643Z,98496.06
2018-05-12T07:27:21.137Z,98497.94
2018-05-12T07:29:48.607Z,98493.02
2018-05-12T07:32:16.091Z,98490.89
2018-05-12T07:34:43.559Z,98488.88
2018-05-12T07:37:11.147Z,98487.04
2018-05-12T07:39:38.705Z,98473.91
2018-05-12T07:42:06.178Z,98475.73
2018-05-12T07:44:33.727Z,98468.98
2018-05-12T07:47:01.285Z,98470.38
2018-05-12T07:49:28.782Z,98466.16
2018-05-12T07:51:56.306Z,98464.91
2018-05-12T07:54:23.799Z,98460.30
2018-05-12T07:56:51.326Z,98457.17
2018-05-12T07:59:18.776Z,98456.39
2018-05-12T08:01:46.243Z,98452.80
2018-05-12T08:04:13.739Z,98444.22
2018-05-12T08:06:41.219Z,98439.13
2018-05-12T08:09:08.809Z,98443.67
2018-05-12T08:11:36.279Z,98443.49
2018-05-12T08:14:03.771Z,98438.78
2018-05-12T08:16:31.256Z,98439.91
2018-05-12T08:18:58.743Z,98443.15
2018-05-12T08:21:26.320Z,98442.03
2018-05-12T08:23:53.879Z,98435.88
2018-05-12T08:26:21.427Z,98436.67
2018-05-12T08:28:48.918Z,98430.24
2018-05-12T08:31:16.378Z,98422.83
2018-05-12T08:33:43.863Z,98423.32
2018-05-12T08:36:11.346Z,98423.42
2018-05-12T08:38:38.829Z,98425.75
2018-05-12T08:41:06.291Z,98418.96
2018-05-12T08:43:33.790Z,98416.97
2018-05-12T08:46:01.247Z,98413.09
2018-05-12T08:48:28.730Z,98405.83
2018-05-12T08:50:56.198Z,98406.98
2018-05-12T08:53:23.658Z,98398.79
2018-05-12T08:55:51.223Z,98401.94
2018-05-12T08:58:18.692Z,98400.11
2018-05-12T09:00:46.258Z,98398.08
2018-05-12T09:03:13.722Z,98392.20
2018-05-12T09:05:41.238Z,98385.27
2018-05-12T09:08:08.856Z,98384.23
2018-05-12T09:10:36.611Z,98379.39
2018-05-12T09:13:04.139Z,98379.10
2018-05-12T09:15:31.699Z,98372.70
2018-05-12T09:17:59.158Z,98378.07
2018-05-12T09:20:26.674Z,98376.38
2018-05-12T09:22:54.170Z,98372.14
2018-05-12T09:25:21.662Z,98371.84
2018-05-12T09:27:49.131Z,98373.03
2018-05-12T09:30:16.647Z,98373.88
2018-05-12T09:32:44.211Z,98365.39
2018-05-12T09:35:11.805Z,98358.72
2018-05-12T09:37:39.270Z,98360.73
2018-05-12T09:40:06.766Z,98360.73
2018-05-12T09:42:34.311Z,98355.56
2018-05-12T09:45:01.828Z,98352.89
2018-05-12T09:47:29.300Z,98349.34
2018-05-12T09:49:56.792Z,98349.22
2018-05-12T09:52:24.269Z,98341.35
2018-05-12T09:54:51.842Z,98336.64
2018-05-12T09:57:19.537Z,98341.78
2018-05-12T09:59:47.026Z,98335.58
2018-05-12T10:02:14.487Z,98333.55
2018-05-12T10:04:41.978Z,98328.30
2018-05-12T10:07:09.579Z,98331.57
2018-05-12T10:09:37.067Z,98322.62
2018-05-12T10:12:04.570Z,98322.68
2018-05-12T10:14:32.149Z,98327.05
2018-05-12T10:16:59.638Z,98318.59
2018-05-12T10:19:27.154Z,98326.61
2018-05-12T10:21:54.690Z,98316.81
2018-05-12T10:24:22.250Z,98319.22
2018-05-12T10:26:49.747Z,98309.65
2018-05-12T10:29:17.227Z,98310.84
2018-05-12T10:31:44.756Z,98304.88
2018-05-12T10:34:12.226Z,98301.04
2018-05-12T10:36:39.735Z,98288.20
2018-05-12T10:39:07.318Z,98289.99
2018-05-12T10:41:34.896Z,98285.36
2018-05-12T10:44:02.358Z,98283.11
2018-05-12T10:46:29.843Z,98282.48
2018-05-12T10:48:57.307Z,98278.59
2018-05-12T10:51:24.798Z,98270.66
2018-05-12T10:53:52.350Z,98267.11
2018-05-12T10:56:19.843Z,98266.08
2018-05-12T10:58:47.367Z,98261.39
2018-05-12T11:01:14.968Z,98253.18
2018-05-12T11:03:42.435Z,98253.70
2018-05-12T11:06:09.947Z,98248.46
2018-05-12T11:08:37.411Z,98240.70
2018-05-12T11:11:04.962Z,98244.30
2018-05-12T11:13:32.491Z,98235.00
2018-05-12T11:16:00.010Z,98235.63
2018-05-12T11:18:27.481Z,98222.66
2018-05-12T11:20:54.964Z,98219.66
2018-05-12T11:23:22.541Z,98213.69
2018-05-12T11:25:50.130Z,98212.63
2018-05-12T11:28:17.595Z,98212.97
2018-05-12T11:30:45.138Z,98202.73
2018-05-12T11:33:12.694Z,98196.01
2018-05-12T11:35:40.180Z,98192.88
2018-05-12T11:38:07.638Z,98189.34
2018-05-12T11:40:35.166Z,98183.27
2018-05-12T11:43:02.634Z,98179.06
2018-05-12T11:45:30.112Z,98176.27
2018-05-12T11:47:57.651Z,98176.91
2018-05-12T11:50:25.114Z,98168.59
2018-05-12T11:52:52.606Z,98165.97
2018-05-12T11:55:20.078Z,98167.30
2018-05-12T11:57:47.570Z,98169.01
2018-05-12T12:00:15.031Z,98167.47
2018-05-12T12:02:42.611Z,98161.69
2018-05-12T12:05:10.133Z,98162.08
2018-05-12T12:07:37.650Z,98166.67
2018-05-12T15:59:57.360Z,97880.27
2018-05-12T16:02:24.828Z,97885.84
2018-05-12T16:04:52.341Z,97880.59
2018-05-12T16:07:19.846Z,97877.09
2018-05-12T16:09:47.348Z,97876.09
2018-05-12T16:12:14.845Z,97880.30
2018-05-12T16:14:42.327Z,97876.22
2018-05-12T16:17:09.791Z,97881.40
2018-05-12T16:19:37.287Z,97868.67
2018-05-12T16:22:04.772Z,97867.91
2018-05-12T16:24:32.332Z,97874.47
2018-05-12T16:26:59.834Z,97866.13
2018-05-12T16:29:27.323Z,97870.67
2018-05-12T16:31:54.927Z,97865.68
2018-05-12T16:34:22.390Z,97860.14
2018-05-12T16:36:49.874Z,97860.08
2018-05-12T16:39:17.370Z,97861.38
2018-05-12T16:41:44.906Z,97848.74
2018-05-12T16:44:12.398Z,97854.49
2018-05-12T16:46:39.963Z,97856.63
2018-05-12T16:49:07.417Z,97857.88
2018-05-12T16:51:34.984Z,97854.17
2018-05-12T16:54:02.477Z,97850.61
2018-05-12T16:56:29.994Z,97851.92
2018-05-12T16:58:57.477Z,97847.75
2018-05-12T17:01:25.012Z,97847.52
2018-05-12T17:03:52.582Z,97849.69
2018-05-12T17:06:20.137Z,97845.08
2018-05-12T17:08:47.690Z,97847.02
2018-05-12T17:11:15.166Z,97844.14
2018-05-12T17:13:42.636Z,97844.48
2018-05-12T17:16:10.119Z,97834.98
2018-05-12T17:18:37.623Z,97832.53
2018-05-12T17:21:05.179Z,97834.08
2018-05-12T17:23:32.637Z,97836.75
2018-05-12T17:26:00.200Z,97834.44
2018-05-12T17:28:27.764Z,97835.55
2018-05-12T17:30:55.319Z,97831.44
2018-05-12T17:33:22.879Z,97836.99
2018-05-12T17:35:50.375Z,97832.52
2018-05-12T17:38:17.844Z,97832.41
2018-05-12T17:40:45.344Z,97830.48
2018-05-12T17:43:12.810Z,97827.30
2018-05-12T17:45:40.302Z,97836.09
2018-05-12T17:48:07.788Z,97828.03
2018-05-12T17:50:35.271Z,97827.63
2018-05-12T17:53:02.845Z,97829.97
2018-05-12T17:55:30.410Z,97824.70
2018-05-12T17:57:57.926Z,97828.45
2018-05-12T18:00:25.461Z,97819.87
2018-05-12T18:02:52.945Z,97820.56
2018-05-12T18:05:20.424Z,97826.09
2018-05-12T18:07:47.954Z,97821.83
2018-05-12T18:10:15.537Z,97817.77
2018-05-12T18:12:43.042Z,97814.89
2018-05-12T18:15:10.507Z,97819.61
2018-05-12T18:17:37.987Z,97816.53
2018-05-12T18:20:05.466Z,97823.27
2018-05-12T18:22:32.959Z,97828.70
2018-05-12T18:25:00.414Z,97827.68
2018-05-12T18:27:27.939Z,97827.26
2018-05-12T18:29:55.675Z,97826.00
2018-05-12T18:32:23.163Z,97825.81
2018-05-12T18:34:50.628Z,97825.50
2018-05-12T18:37:18.118Z,97826.48
2018-05-12T18:39:45.591Z,97828.71
2018-05-12T18:42:13.578Z,97827.52
2018-05-12T18:44:41.071Z,97829.55
2018-05-12T18:47:08.646Z,97823.84
2018-05-12T18:49:36.111Z,97829.83
2018-05-12T18:52:03.607Z,97834.39
2018-05-12T18:54:31.114Z,97829.58
2018-05-12T18:56:58.634Z,97831.83
2018-05-12T18:59:26.154Z,97835.97
2018-05-12T19:01:53.698Z,97835.26
2018-05-12T19:04:21.221Z,97828.62
2018-05-12T19:06:48.742Z,97833.64
2018-05-12T19:09:16.251Z,97827.92
2018-05-12T19:11:43.758Z,97833.67
2018-05-12T19:14:11.295Z,97834.61
2018-05-12T19:16:38.793Z,97835.34
2018-05-12T19:19:06.307Z,97828.98
2018-05-12T19:21:33.782Z,97834.33
2018-05-12T19:24:01.299Z,97839.48
2018-05-12T19:26:28.790Z,97842.16
2018-05-12T19:28:56.347Z,97848.70
2018-05-12T19:31:23.812Z,97843.91
2018-05-12T19:33:51.319Z,97846.83
2018-05-12T19:36:18.823Z,97852.06
2018-05-12T19:38:46.484Z,97855.96
2018-05-12T19:41:14.047Z,97860.66
2018-05-12T19:43:41.555Z,97862.13
2018-05-12T19:46:09.071Z,97865.15
2018-05-12T19:48:36.582Z,97869.66
2018-05-12T19:51:07.834Z,97878.22
2018-05-12T19:53:35.339Z,97900.69
2018-05-12T19:56:02.838Z,97901.12
2018-05-12T19:58:30.347Z,97907.69
2018-05-12T20:01:01.432Z,97907.81
2018-05-12T20:03:29.059Z,97906.88
2018-05-12T20:05:56.565Z,97918.34
2018-05-12T20:08:24.078Z,97922.84
2018-05-12T20:10:53.549Z,97927.64
2018-05-12T20:13:21.886Z,97932.66
2018-05-12T20:15:49.440Z,97939.39
2018-05-12T20:18:16.966Z,97932.09
2018-05-12T20:20:44.446Z,97932.06
2018-05-12T20:23:11.931Z,97939.18
2018-05-12T20:25:39.517Z,97944.30
2018-05-12T20:28:06.990Z,97943.66
2018-05-12T20:30:34.449Z,97954.92
2018-05-12T20:33:04.181Z,97950.29
2018-05-12T20:35:31.679Z,97955.09
2018-05-12T20:37:59.190Z,97959.16
2018-05-12T20:40:26.689Z,97954.53
2018-05-12T20:42:55.098Z,97959.81
2018-05-12T20:45:22.705Z,97959.78
2018-05-12T20:47:50.223Z,97953.81
2018-05-12T20:50:17.711Z,97957.36
2018-05-12T20:52:45.190Z,97961.31
2018-05-12T20:55:12.678Z,97959.72
2018-05-12T20:57:40.146Z,97953.73
2018-05-12T21:00:11.242Z,97956.31
2018-05-12T21:02:38.706Z,97955.37
2018-05-12T21:05:06.270Z,97948.00
2018-05-12T21:07:33.734Z,97947.47
2018-05-12T21:10:03.415Z,97939.80
2018-05-12T21:12:30.965Z,97947.12
2018-05-12T21:14:58.465Z,97942.98
2018-05-12T21:17:25.935Z,97939.51
2018-05-12T21:19:53.510Z,97953.11
2018-05-12T21:22:20.999Z,97958.45
2018-05-12T21:24:48.489Z,97962.16
2018-05-12T21:27:15.970Z,97967.06
2018-05-12T21:29:43.523Z,97974.47
2018-05-12T21:32:11.016Z,97971.40
2018-05-12T21:34:38.532Z,97980.44
2018-05-12T21:37:06.055Z,97978.12
2018-05-12T21:39:33.550Z,97985.45
2018-05-12T21:42:01.044Z,97984.33
2018-05-12T21:44:28.534Z,97986.45
2018-05-12T21:46:56.021Z,97992.41
2018-05-12T21:49:23.483Z,97984.69
2018-05-12T21:51:51.002Z,97980.85
2018-05-12T21:54:18.467Z,97978.86
2018-05-12T21:56:46.018Z,97984.50
2018-05-12T21:59:13.582Z,97976.79
2018-05-12T22:01:41.129Z,97983.88
2018-05-12T22:04:08.698Z,97989.23
2018-05-12T22:06:36.271Z,98009.97
2018-05-12T22:09:03.775Z,98032.75
2018-05-12T22:11:31.280Z,98056.66
2018-05-12T22:13:58.755Z,98077.48
2018-05-12T22:16:26.248Z,98095.15
2018-05-12T22:18:53.790Z,98107.77
2018-05-12T22:21:21.282Z,98098.84
2018-05-12T22:23:48.747Z,98111.60
2018-05-12T22:26:16.238Z,98127.84
2018-05-12T22:28:43.706Z,98124.64
2018-05-12T22:31:11.243Z,98132.89
2018-05-12T22:33:38.719Z,98157.70
2018-05-12T22:36:06.224Z,98177.58
2018-05-12T22:38:33.691Z,98185.58
2018-05-12T22:41:01.279Z,98179.77
2018-05-12T22:43:28.751Z,98176.91
2018-05-12T22:45:56.399Z,98170.50
2018-05-12T22:48:23.863Z,98180.52
2018-05-12T22:50:51.342Z,98170.84
2018-05-12T22:53:18.827Z,98164.86
2018-05-12T22:55:46.326Z,98162.34
2018-05-12T22:58:13.819Z,98160.48
2018-05-12T23:00:41.330Z,98151.20
2018-05-12T23:03:08.825Z,98150.27
2018-05-12T23:05:36.314Z,98148.59
2018-05-12T23:08:03.814Z,98130.25
2018-05-12T23:10:31.270Z,98120.88
2018-05-12T23:12:58.852Z,98099.28
2018-05-12T23:15:26.321Z,98081.60
2018-05-12T23:17:53.821Z,98082.95
2018-05-12T23:20:21.314Z,98078.81
2018-05-12T23:22:48.979Z,98070.03
2018-05-12T23:25:16.506Z,98050.26
2018-05-12T23:27:44.091Z,98025.44
2018-05-12T23:30:11.563Z,98008.95
2018-05-12T23:32:39.111Z,98018.04
2018-05-12T23:35:06.575Z,98032.99
2018-05-12T23:37:34.067Z,98056.79
2018-05-12T23:40:01.534Z,98075.28
2018-05-12T23:42:29.072Z,98075.97
2018-05-12T23:44:56.496Z,98081.61
2018-05-12T23:47:24.082Z,98081.37
2018-05-12T23:49:51.623Z,98081.86
2018-05-12T23:52:19.132Z,98078.50
2018-05-12T23:54:46.602Z,98076.15
2018-05-12T23:57:14.094Z,98072.01
2018-05-12T23:59:41.562Z,98077.48
